Cut Knife, Canada
Current Conditions -  °F | °C
As of 4:00 PM on Sunday 23 Nov 2014 (Local Time) from CYQW Reporting Station
Overcast Overcast  
Wind Chill:   Ceiling: 1100
Heat Index: 16°   Visibility: 9mi
Dew Point: 12°   Wind: 5mph
Humidity: 86%   Direction: 260°W
Pressure: 29.83"   Gusts: NA
Location:  52.74°N, 109.02°W
Report Text: CYQW 232200Z AUTO 26004KT 250V350 9SM OVC011 M09/M11 A2983 RMK SLP140
Loading
Personal Weather Stations






























Interactive Weather Map New forecast layout! Learn more

10-Day Weather Forecast

Advertisements
Track Severe Weather on mobile